Terminal Aerodrome Forecast
Issued by NWS Caribou, ME

Home | Current Version | Previous Version | Text Only | Print | Product List | Glossary On
Versions: 1 2 3 4 5 6 7 8 9 10 11 12 13 14 15 16 17
000
FTUS41 KCAR 180924 AAA
TAFBGR
TAF AMD
KBGR 180924Z 1809/1906 05005KT P6SM OVC025
     FM181400 07008KT 3SM -SN OVC015
     FM182100 07005KT P6SM OVC025=

USA.gov is the U.S. government's official web portal to all federal, state and local government web resources and services.